createdAt,value
2018-04-17T00:00:14.333Z,6.30
2018-04-17T00:02:41.800Z,7.03
2018-04-17T00:05:10.038Z,4.17
2018-04-17T00:07:37.561Z,4.27
2018-04-17T00:10:05.050Z,4.20
2018-04-17T00:12:32.521Z,4.43
2018-04-17T00:15:00.412Z,4.33
2018-04-17T00:17:27.885Z,4.13
2018-04-17T00:19:56.152Z,4.23
2018-04-17T00:22:23.667Z,4.57
2018-04-17T00:24:52.522Z,4.77
2018-04-17T00:27:24.307Z,5.97
2018-04-17T00:29:59.792Z,4.20
2018-04-17T00:32:29.128Z,6.33
2018-04-17T00:35:01.980Z,3.83
2018-04-17T00:37:37.973Z,4.10
2018-04-17T00:40:07.709Z,4.00
2018-04-17T00:42:41.445Z,4.77
2018-04-17T00:45:09.922Z,4.20
2018-04-17T00:47:37.474Z,5.60
2018-04-17T00:50:05.061Z,4.47
2018-04-17T00:52:32.558Z,6.10
2018-04-17T00:55:00.065Z,4.13
2018-04-17T00:57:28.153Z,4.60
2018-04-17T00:59:55.628Z,4.07
2018-04-17T01:02:24.125Z,5.07
2018-04-17T01:07:25.693Z,6.27
2018-04-17T01:09:53.637Z,5.20
2018-04-17T01:15:32.503Z,5.20
2018-04-17T01:18:00.919Z,4.60
2018-04-17T01:20:28.417Z,4.30
2018-04-17T01:22:56.336Z,4.30
2018-04-17T01:25:24.218Z,4.40
2018-04-17T01:27:51.713Z,3.90
2018-04-17T01:30:19.171Z,4.33
2018-04-17T01:32:47.205Z,4.90
2018-04-17T01:35:21.665Z,5.03
2018-04-17T01:40:52.969Z,6.03
2018-04-17T01:46:46.551Z,5.90
2018-04-17T01:49:20.868Z,4.73
2018-04-17T02:05:40.989Z,6.20
2018-04-17T02:08:09.317Z,6.23
2018-04-17T02:10:40.478Z,5.65
2018-04-17T02:13:09.403Z,5.87
2018-04-17T02:15:37.824Z,6.00
2018-04-17T02:18:05.648Z,5.57
2018-04-17T03:08:27.898Z,10.00
2018-04-17T03:10:56.174Z,7.77
2018-04-17T03:13:23.596Z,7.37
2018-04-17T03:15:51.024Z,9.07
2018-04-17T03:35:14.016Z,17.40
2018-04-17T03:40:40.562Z,9.47
2018-04-17T03:43:08.006Z,9.68
2018-04-17T03:45:35.423Z,9.25
2018-04-17T03:48:02.864Z,9.35
2018-04-17T03:50:30.315Z,8.00
2018-04-17T03:52:58.207Z,15.02
2018-04-17T03:55:25.675Z,13.20
2018-04-17T03:57:53.131Z,9.93
2018-04-17T04:00:20.583Z,13.30
2018-04-17T04:02:48.011Z,11.87
2018-04-17T04:05:15.481Z,11.73
2018-04-17T04:07:42.905Z,10.45
2018-04-17T04:10:10.331Z,10.43
2018-04-17T04:12:37.855Z,14.13
2018-04-17T04:15:05.312Z,10.23
2018-04-17T04:17:44.779Z,9.82
2018-04-17T04:20:25.098Z,11.05
2018-04-17T04:23:04.860Z,12.13
2018-04-17T04:25:44.218Z,10.02
2018-04-17T04:28:12.044Z,9.45
2018-04-17T04:30:39.519Z,10.70
2018-04-17T04:33:06.978Z,10.20
2018-04-17T04:35:35.080Z,12.00
2018-04-17T04:38:02.945Z,13.68
2018-04-17T04:40:30.796Z,10.13
2018-04-17T04:42:58.260Z,9.40
2018-04-17T04:45:25.727Z,9.97
2018-04-17T04:47:53.591Z,10.05
2018-04-17T04:50:21.049Z,11.10
2018-04-17T04:52:48.904Z,10.13
2018-04-17T04:55:16.360Z,10.05
2018-04-17T04:57:43.916Z,10.63
2018-04-17T05:00:11.342Z,12.27
2018-04-17T05:02:38.803Z,9.48
2018-04-17T05:05:06.255Z,14.80
2018-04-17T05:07:33.715Z,10.37
2018-04-17T05:10:01.177Z,15.40
2018-04-17T05:12:28.632Z,9.63
2018-04-17T05:14:56.092Z,11.93
2018-04-17T05:17:23.553Z,12.60
2018-04-17T05:19:51.008Z,12.60
2018-04-17T05:22:18.465Z,12.77
2018-04-17T05:24:45.931Z,11.30
2018-04-17T05:27:13.392Z,9.73
2018-04-17T05:29:40.861Z,12.37
2018-04-17T05:32:08.320Z,11.97
2018-04-17T05:34:35.788Z,11.18
2018-04-17T05:37:03.236Z,9.97
2018-04-17T05:39:30.697Z,10.23
2018-04-17T05:41:58.153Z,9.70
2018-04-17T05:44:25.691Z,10.93
2018-04-17T05:46:53.056Z,9.70
2018-04-17T05:49:20.528Z,17.08
2018-04-17T05:51:47.983Z,8.23
2018-04-17T05:54:15.456Z,14.37
2018-04-17T05:56:42.911Z,12.80
2018-04-17T05:59:10.372Z,13.37
2018-04-17T06:01:38.223Z,10.87
2018-04-17T06:04:05.692Z,14.00
2018-04-17T06:06:33.149Z,12.43
2018-04-17T06:09:00.624Z,13.47
2018-04-17T06:11:28.084Z,16.73
2018-04-17T06:13:55.554Z,16.60
2018-04-17T06:16:23.012Z,17.70
2018-04-17T06:18:50.495Z,17.67
2018-04-17T06:21:17.961Z,12.00
2018-04-17T06:23:45.412Z,14.77
2018-04-17T06:26:13.741Z,17.20
2018-04-17T06:28:49.042Z,13.80
2018-04-17T06:31:16.533Z,19.80
2018-04-17T06:36:38.690Z,15.10
2018-04-17T06:39:06.197Z,15.43
2018-04-17T06:41:33.671Z,13.90
2018-04-17T06:44:01.998Z,16.83
2018-04-17T06:46:29.485Z,16.20
2018-04-17T06:48:57.761Z,18.27
2018-04-17T06:51:26.189Z,15.50
2018-04-17T06:53:54.596Z,12.40
2018-04-17T06:56:22.634Z,13.27
2018-04-17T06:58:51.641Z,17.70
2018-04-17T07:01:20.141Z,13.40
2018-04-17T07:03:48.468Z,15.13
2018-04-17T07:06:15.934Z,13.50
2018-04-17T07:08:44.069Z,16.00
2018-04-17T07:11:13.725Z,11.47
2018-04-17T07:13:41.302Z,11.20
2018-04-17T07:16:08.782Z,11.23
2018-04-17T07:18:38.871Z,11.87
2018-04-17T07:21:06.806Z,15.03
2018-04-17T07:23:34.310Z,12.57
2018-04-17T07:26:01.809Z,14.60
2018-04-17T07:28:29.344Z,14.67
2018-04-17T07:30:57.211Z,14.17
2018-04-17T07:33:25.456Z,12.97
2018-04-17T07:35:54.171Z,12.23
2018-04-17T07:38:21.662Z,14.47
2018-04-17T07:40:50.904Z,16.50
2018-04-17T07:43:18.794Z,17.13
2018-04-17T07:45:46.294Z,16.20
2018-04-17T07:48:25.423Z,12.80
2018-04-17T07:50:52.902Z,11.33
2018-04-17T07:53:20.381Z,17.60
2018-04-17T07:55:47.903Z,14.70
2018-04-17T07:58:15.319Z,13.13
2018-04-17T08:00:42.884Z,12.47
2018-04-17T08:03:10.360Z,17.17
2018-04-17T08:05:37.828Z,12.37
2018-04-17T08:08:05.322Z,15.77
2018-04-17T08:10:32.808Z,15.20
2018-04-17T08:13:00.301Z,14.23
2018-04-17T08:15:27.793Z,12.47
2018-04-17T08:17:55.275Z,15.20
2018-04-17T08:20:22.758Z,13.10
2018-04-17T08:22:50.253Z,15.90
2018-04-17T08:25:17.739Z,14.90
2018-04-17T08:27:45.201Z,11.90
2018-04-17T08:30:12.671Z,14.13
2018-04-17T08:32:40.127Z,14.50
2018-04-17T08:35:07.612Z,14.40
2018-04-17T08:37:35.065Z,12.77
2018-04-17T08:40:02.540Z,13.80
2018-04-17T08:42:30.388Z,12.70
2018-04-17T08:44:57.860Z,12.93
2018-04-17T08:47:25.699Z,12.40
2018-04-17T08:49:53.172Z,12.63
2018-04-17T08:52:20.635Z,15.90
2018-04-17T08:54:48.106Z,14.53
2018-04-17T08:57:15.959Z,13.63
2018-04-17T08:59:43.973Z,16.33
2018-04-17T09:02:13.167Z,12.27
2018-04-17T09:04:40.639Z,14.67
2018-04-17T09:07:08.103Z,11.70
2018-04-17T09:09:35.583Z,15.23
2018-04-17T09:12:03.036Z,11.50
2018-04-17T09:14:30.500Z,12.20
2018-04-17T09:16:57.956Z,13.33
2018-04-17T09:19:25.427Z,13.40
2018-04-17T09:21:52.879Z,12.40
2018-04-17T09:24:20.352Z,13.73
2018-04-17T09:26:50.616Z,16.33
2018-04-17T09:32:10.565Z,10.30
2018-04-17T09:34:38.031Z,12.60
2018-04-17T09:37:05.499Z,11.10
2018-04-17T09:39:33.000Z,10.57
2018-04-17T09:42:01.617Z,14.33
2018-04-17T09:44:29.087Z,12.97
2018-04-17T09:46:56.545Z,13.20
2018-04-17T09:49:24.056Z,11.10
2018-04-17T09:51:51.524Z,11.97
2018-04-17T09:54:18.996Z,10.63
2018-04-17T09:56:46.458Z,14.17
2018-04-17T09:59:13.944Z,11.40
2018-04-17T10:01:41.785Z,9.40
2018-04-17T10:04:09.231Z,8.83
2018-04-17T10:06:36.662Z,8.07
2018-04-17T10:09:04.129Z,7.80
2018-04-17T10:11:31.539Z,8.70
2018-04-17T10:13:58.984Z,8.77
2018-04-17T10:16:26.443Z,8.00
2018-04-17T10:18:53.867Z,7.33
2018-04-17T10:21:21.304Z,7.80
2018-04-17T10:23:48.740Z,13.33
2018-04-17T10:26:16.175Z,6.90
2018-04-17T10:28:43.615Z,8.13
2018-04-17T10:31:11.067Z,10.67
2018-04-17T10:33:38.887Z,8.47
2018-04-17T10:36:06.332Z,6.40
2018-04-17T10:38:33.763Z,5.47
2018-04-17T10:41:01.206Z,6.03
2018-04-17T10:43:28.632Z,5.30
2018-04-17T10:45:56.072Z,5.90
2018-04-17T10:48:24.480Z,6.70
2018-04-17T10:50:51.930Z,5.90
2018-04-17T10:53:19.366Z,9.10
2018-04-17T10:55:46.807Z,5.93
2018-04-17T10:58:14.267Z,6.20
2018-04-17T11:00:42.358Z,5.53
2018-04-17T11:03:09.799Z,5.63
2018-04-17T11:05:37.228Z,5.77
2018-04-17T11:08:04.666Z,7.50
2018-04-17T11:10:32.094Z,8.30
2018-04-17T11:12:59.527Z,5.43
2018-04-17T11:15:27.007Z,5.43
2018-04-17T11:17:54.453Z,5.37
2018-04-17T11:20:21.894Z,6.03
2018-04-17T11:22:49.311Z,9.43
2018-04-17T11:25:17.147Z,7.30
2018-04-17T11:27:44.590Z,5.93
2018-04-17T11:30:12.033Z,4.73
2018-04-17T11:32:39.468Z,5.07
2018-04-17T11:35:06.920Z,5.30
2018-04-17T11:37:34.355Z,5.20
2018-04-17T11:40:01.774Z,3.80
2018-04-17T11:42:29.219Z,4.93
2018-04-17T11:44:56.647Z,6.80
2018-04-17T11:47:24.143Z,3.57
2018-04-17T11:49:51.597Z,2.80
2018-04-17T11:52:19.028Z,3.10
2018-04-17T11:54:46.462Z,3.43
2018-04-17T11:57:13.896Z,3.40
2018-04-17T11:59:41.332Z,3.50
2018-04-17T12:02:08.763Z,3.33
2018-04-17T12:04:36.187Z,4.67
2018-04-17T12:07:03.610Z,3.43
2018-04-17T12:09:31.043Z,6.37
2018-04-17T12:11:58.476Z,2.00
2018-04-17T12:14:25.921Z,5.60
2018-04-17T12:16:53.360Z,4.17
2018-04-17T12:19:20.807Z,3.00
2018-04-17T12:21:48.238Z,3.77
2018-04-17T12:24:15.667Z,3.40
2018-04-17T12:26:43.130Z,3.00
2018-04-17T12:29:10.558Z,3.83
2018-04-17T12:31:37.990Z,3.17
2018-04-17T12:34:05.811Z,4.00
2018-04-17T12:36:33.251Z,2.80
2018-04-17T12:39:00.713Z,2.50
2018-04-17T12:41:28.140Z,3.67
2018-04-17T12:43:56.970Z,4.27
2018-04-17T12:46:25.010Z,3.00
2018-04-17T12:48:52.453Z,1.70
2018-04-17T12:51:19.900Z,3.40
2018-04-17T12:53:48.380Z,2.17
2018-04-17T12:56:16.215Z,2.07
2018-04-17T12:58:43.647Z,3.47
2018-04-17T13:01:11.857Z,4.07
2018-04-17T13:03:39.279Z,2.60
2018-04-17T13:06:06.738Z,2.33
2018-04-17T13:08:34.159Z,2.27
2018-04-17T13:11:01.624Z,2.90
2018-04-17T13:13:29.050Z,2.87
2018-04-17T13:15:56.478Z,6.03
2018-04-17T13:18:23.903Z,3.30
2018-04-17T13:20:51.333Z,7.57
2018-04-17T13:23:19.160Z,4.13
2018-04-17T13:25:46.607Z,2.23
2018-04-17T13:28:14.030Z,5.93
2018-04-17T13:30:41.470Z,2.47
2018-04-17T13:33:08.887Z,4.90
2018-04-17T13:35:36.319Z,1.67
2018-04-17T13:38:03.747Z,5.00
2018-04-17T13:40:31.183Z,3.43
2018-04-17T13:42:59.888Z,5.83
2018-04-17T13:45:27.326Z,3.37
2018-04-17T13:47:55.146Z,2.77
2018-04-17T13:50:22.575Z,4.37
2018-04-17T13:52:50.000Z,3.00
2018-04-17T13:55:17.430Z,2.70
2018-04-17T13:57:44.870Z,2.10
2018-04-17T14:00:12.308Z,3.27
2018-04-17T14:02:39.749Z,2.70
2018-04-17T14:05:07.188Z,4.20
2018-04-17T14:07:35.007Z,4.33
2018-04-17T14:10:02.431Z,2.40
2018-04-17T14:12:29.863Z,3.23
2018-04-17T14:14:57.687Z,3.70
2018-04-17T14:17:25.155Z,3.17
2018-04-17T14:19:52.547Z,3.93
2018-04-17T14:22:20.380Z,3.30
2018-04-17T14:24:47.806Z,5.40
2018-04-17T14:27:15.239Z,3.13
2018-04-17T14:29:42.671Z,1.40
2018-04-17T14:32:10.082Z,1.70
2018-04-17T14:34:37.525Z,4.47
2018-04-17T14:37:04.952Z,2.30
2018-04-17T14:39:32.775Z,2.43
2018-04-17T14:42:00.212Z,2.30
2018-04-17T14:44:27.634Z,3.73
2018-04-17T14:46:55.062Z,2.60
2018-04-17T14:49:22.492Z,3.43
2018-04-17T14:51:49.929Z,2.70
2018-04-17T14:54:17.353Z,1.67
2018-04-17T14:56:45.176Z,1.93
2018-04-17T14:59:12.596Z,4.13
2018-04-17T15:01:40.027Z,2.30
2018-04-17T15:04:07.440Z,1.90
2018-04-17T15:06:34.884Z,3.00
2018-04-17T15:09:02.310Z,5.93
2018-04-17T15:11:30.141Z,2.50
2018-04-17T15:13:57.551Z,2.40
2018-04-17T15:16:24.985Z,1.83
2018-04-17T15:18:52.415Z,1.67
2018-04-17T15:21:19.845Z,2.90
2018-04-17T15:23:47.265Z,1.90
2018-04-17T15:26:14.731Z,4.63
2018-04-17T15:28:42.177Z,4.20
2018-04-17T15:31:09.599Z,2.07
2018-04-17T15:33:37.022Z,2.20
2018-04-17T15:36:04.457Z,2.00
2018-04-17T15:38:31.875Z,2.40
2018-04-17T15:40:59.313Z,1.50
2018-04-17T15:43:26.730Z,1.97
2018-04-17T15:45:54.158Z,2.47
2018-04-17T15:48:21.966Z,2.43
2018-04-17T15:50:49.469Z,3.03
2018-04-17T15:53:16.826Z,4.50
2018-04-17T15:55:44.272Z,1.83
2018-04-17T15:58:11.691Z,2.30
2018-04-17T16:00:39.125Z,2.73
2018-04-17T16:03:06.547Z,5.73
2018-04-17T16:05:34.465Z,1.57
2018-04-17T16:08:01.891Z,1.77
2018-04-17T16:10:29.318Z,2.53
2018-04-17T16:12:56.802Z,2.63
2018-04-17T16:15:24.175Z,1.50
2018-04-17T16:17:56.464Z,2.30
2018-04-17T16:20:36.274Z,3.43
2018-04-17T16:23:06.616Z,2.10
2018-04-17T16:25:34.163Z,1.33
2018-04-17T16:28:02.355Z,2.10
2018-04-17T16:30:29.832Z,4.50
2018-04-17T16:32:57.298Z,4.27
2018-04-17T16:35:25.876Z,4.97
2018-04-17T16:37:54.341Z,3.70
2018-04-17T16:40:24.507Z,4.37
2018-04-17T16:42:54.532Z,4.07
2018-04-17T16:45:22.388Z,1.93
2018-04-17T16:47:49.872Z,2.53
2018-04-17T16:50:17.549Z,2.53
2018-04-17T16:52:45.417Z,1.77
2018-04-17T16:55:12.881Z,2.73
2018-04-17T16:57:40.339Z,2.23
2018-04-17T17:00:07.799Z,3.50
2018-04-17T17:02:35.255Z,2.57
2018-04-17T17:05:02.706Z,2.30
2018-04-17T17:07:30.164Z,1.97
2018-04-17T17:09:59.611Z,3.53
2018-04-17T17:12:35.531Z,4.97
2018-04-17T17:23:46.700Z,2.07
2018-04-17T17:26:14.160Z,2.60
2018-04-17T17:28:43.752Z,2.63
2018-04-17T17:31:11.224Z,2.33
2018-04-17T17:33:38.683Z,1.90
2018-04-17T17:36:06.996Z,3.00
2018-04-17T17:38:42.122Z,3.20
2018-04-17T17:43:55.967Z,3.27
2018-04-17T17:46:23.827Z,4.70
2018-04-17T17:48:51.671Z,2.07
2018-04-17T17:51:19.631Z,1.83
2018-04-17T17:53:47.051Z,1.93
2018-04-17T17:56:14.524Z,2.10
2018-04-17T17:58:41.935Z,2.23
2018-04-17T18:01:09.763Z,2.40
2018-04-17T18:03:37.220Z,2.27
2018-04-17T18:06:04.629Z,1.50
2018-04-17T18:08:32.068Z,2.93
2018-04-17T18:11:00.308Z,2.30
2018-04-17T18:13:27.738Z,3.70
2018-04-17T18:15:56.119Z,2.43
2018-04-17T18:18:23.527Z,2.70
2018-04-17T18:20:51.845Z,2.20
2018-04-17T18:23:19.829Z,2.00
2018-04-17T18:25:47.247Z,2.23
2018-04-17T18:28:14.697Z,3.50
2018-04-17T18:30:42.520Z,2.63
2018-04-17T18:33:09.952Z,2.77
2018-04-17T18:35:37.371Z,2.73
2018-04-17T18:38:05.214Z,3.20
2018-04-17T18:40:32.667Z,4.70
2018-04-17T18:43:01.683Z,6.17
2018-04-17T18:45:29.558Z,4.60
2018-04-17T18:47:57.048Z,5.10
2018-04-17T18:50:24.481Z,8.80
2018-04-17T18:52:51.929Z,5.00
2018-04-17T18:55:19.856Z,4.03
2018-04-17T18:57:47.337Z,4.90
2018-04-17T19:00:14.883Z,3.47
2018-04-17T19:02:42.369Z,3.73
2018-04-17T19:05:10.216Z,4.30
2018-04-17T19:07:37.671Z,3.60
2018-04-17T19:10:05.116Z,2.90
2018-04-17T19:12:32.786Z,2.30
2018-04-17T19:15:00.274Z,2.30
2018-04-17T19:17:30.148Z,2.20
2018-04-17T19:19:58.577Z,2.17
2018-04-17T19:22:27.857Z,4.37
2018-04-17T19:24:55.368Z,3.50
2018-04-17T19:27:23.655Z,5.80
2018-04-17T19:29:53.749Z,2.97
2018-04-17T19:32:24.079Z,2.93
2018-04-17T19:35:16.299Z,6.43
2018-04-17T19:37:47.791Z,4.27
2018-04-17T19:40:15.301Z,2.63
2018-04-17T19:42:43.799Z,4.10
2018-04-17T19:45:12.560Z,3.13
2018-04-17T19:47:43.927Z,2.70
2018-04-17T19:50:12.629Z,2.13
2018-04-17T19:52:45.936Z,2.17
2018-04-17T19:55:14.877Z,3.97
2018-04-17T19:57:50.900Z,3.40
2018-04-17T20:00:20.121Z,3.80
2018-04-17T20:02:48.201Z,3.23
2018-04-17T20:05:18.232Z,3.50
2018-04-17T20:07:48.005Z,4.00
2018-04-17T20:10:20.194Z,3.00
2018-04-17T20:12:51.604Z,3.73
2018-04-17T20:17:53.708Z,2.63
2018-04-17T20:20:21.961Z,3.67
2018-04-17T20:22:49.872Z,3.10
2018-04-17T20:25:19.219Z,7.27
2018-04-17T20:27:50.677Z,3.20
2018-04-17T20:30:18.485Z,3.13
2018-04-17T20:32:48.125Z,4.87
2018-04-17T20:35:16.870Z,4.70
2018-04-17T20:37:48.079Z,2.87
2018-04-17T20:40:18.226Z,3.20
2018-04-17T20:42:46.905Z,3.10
2018-04-17T20:45:17.293Z,3.43
2018-04-17T20:47:45.124Z,7.43
2018-04-17T20:50:22.330Z,5.73
2018-04-17T20:52:49.945Z,4.80
2018-04-17T20:55:18.493Z,2.63
2018-04-17T20:57:46.393Z,4.60
2018-04-17T21:00:16.488Z,3.93
2018-04-17T21:02:56.684Z,4.27
2018-04-17T21:05:27.284Z,3.77
2018-04-17T21:10:40.897Z,3.23
2018-04-17T21:13:24.220Z,3.73
2018-04-17T21:15:51.642Z,6.30
2018-04-17T21:20:53.307Z,4.53
2018-04-17T21:23:20.747Z,3.20
2018-04-17T21:25:48.169Z,2.67
2018-04-17T21:28:15.640Z,3.63
2018-04-17T21:30:43.102Z,3.27
2018-04-17T21:33:12.099Z,4.50
2018-04-17T21:35:40.275Z,3.27
2018-04-17T21:38:08.124Z,7.50
2018-04-17T21:40:35.641Z,4.10
2018-04-17T21:43:03.968Z,4.57
2018-04-17T21:45:33.725Z,2.90
2018-04-17T21:48:02.894Z,3.50
2018-04-17T21:50:31.850Z,4.50
2018-04-17T21:52:59.364Z,4.30
2018-04-17T21:55:29.865Z,4.77
2018-04-17T21:57:57.332Z,5.27
2018-04-17T22:00:25.956Z,6.30
2018-04-17T22:02:55.977Z,4.13
2018-04-17T22:05:24.653Z,5.07
2018-04-17T22:07:52.316Z,4.23
2018-04-17T22:10:21.199Z,5.73
2018-04-17T22:12:49.903Z,5.97
2018-04-17T22:15:17.363Z,4.77
2018-04-17T22:17:45.294Z,6.50
2018-04-17T22:20:14.206Z,5.17
2018-04-17T22:22:42.101Z,7.70
2018-04-17T22:25:13.477Z,4.70
2018-04-17T22:27:46.009Z,5.97
2018-04-17T22:30:13.559Z,5.27
2018-04-17T22:32:42.287Z,4.27
2018-04-17T22:35:10.056Z,3.60
2018-04-17T22:37:37.617Z,5.67
2018-04-17T22:40:12.555Z,4.07
2018-04-17T22:42:45.219Z,3.93
2018-04-17T22:45:14.175Z,5.47
2018-04-17T22:47:42.632Z,5.73
2018-04-17T22:50:11.625Z,5.63
2018-04-17T22:52:44.125Z,4.50
2018-04-17T22:55:13.169Z,4.73
2018-04-17T22:57:50.803Z,3.60
2018-04-17T23:00:20.498Z,3.50
2018-04-17T23:02:47.963Z,4.97
2018-04-17T23:05:16.191Z,5.00
2018-04-17T23:07:44.708Z,3.80
2018-04-17T23:10:13.224Z,4.53
2018-04-17T23:12:43.684Z,5.07
2018-04-17T23:15:14.036Z,5.10
2018-04-17T23:17:45.912Z,4.90
2018-04-17T23:20:14.866Z,5.67
2018-04-17T23:25:20.119Z,6.80
2018-04-17T23:30:24.706Z,3.90
2018-04-17T23:32:55.288Z,6.20
2018-04-17T23:35:23.847Z,4.80
2018-04-17T23:40:25.169Z,6.00
2018-04-17T23:42:54.675Z,4.83
2018-04-17T23:45:22.088Z,4.87
2018-04-17T23:47:49.518Z,5.50
2018-04-17T23:50:16.943Z,5.30
2018-04-17T23:52:45.243Z,6.10
2018-04-17T23:55:12.679Z,5.03
2018-04-17T23:57:40.128Z,4.23
